sensor_id;sensor_type;location;lat;lon;timestamp;P1;durP1;ratioP1;P2;durP2;ratioP2
63693;SDS011;49839;51.798;10.954;2024-01-10T00:00:20;28.27;;;10.43;;
63693;SDS011;49839;51.798;10.954;2024-01-10T00:02:47;25.00;;;10.70;;
63693;SDS011;49839;51.798;10.954;2024-01-10T00:05:15;26.83;;;11.05;;
63693;SDS011;49839;51.798;10.954;2024-01-10T00:07:45;27.23;;;11.05;;
63693;SDS011;49839;51.798;10.954;2024-01-10T00:10:14;25.90;;;11.88;;
63693;SDS011;49839;51.798;10.954;2024-01-10T00:12:42;27.77;;;11.20;;
63693;SDS011;49839;51.798;10.954;2024-01-10T00:15:10;26.02;;;11.10;;
63693;SDS011;49839;51.798;10.954;2024-01-10T00:17:39;24.17;;;12.00;;
63693;SDS011;49839;51.798;10.954;2024-01-10T00:20:07;29.60;;;11.63;;
63693;SDS011;49839;51.798;10.954;2024-01-10T00:22:34;25.63;;;11.65;;
63693;SDS011;49839;51.798;10.954;2024-01-10T00:25:02;31.08;;;13.13;;
63693;SDS011;49839;51.798;10.954;2024-01-10T00:27:32;35.40;;;13.77;;
63693;SDS011;49839;51.798;10.954;2024-01-10T00:30:00;39.95;;;13.95;;
63693;SDS011;49839;51.798;10.954;2024-01-10T00:32:27;32.40;;;13.95;;
63693;SDS011;49839;51.798;10.954;2024-01-10T00:34:55;37.63;;;16.45;;
63693;SDS011;49839;51.798;10.954;2024-01-10T00:37:22;27.65;;;13.25;;
63693;SDS011;49839;51.798;10.954;2024-01-10T00:39:50;33.42;;;14.07;;
63693;SDS011;49839;51.798;10.954;2024-01-10T00:42:17;26.55;;;13.02;;
63693;SDS011;49839;51.798;10.954;2024-01-10T00:44:46;28.52;;;13.25;;
63693;SDS011;49839;51.798;10.954;2024-01-10T00:47:13;29.47;;;12.83;;
63693;SDS011;49839;51.798;10.954;2024-01-10T00:49:41;30.70;;;12.60;;
63693;SDS011;49839;51.798;10.954;2024-01-10T00:52:09;27.25;;;12.20;;
63693;SDS011;49839;51.798;10.954;2024-01-10T00:54:36;25.48;;;12.48;;
63693;SDS011;49839;51.798;10.954;2024-01-10T00:57:03;27.00;;;12.50;;
63693;SDS011;49839;51.798;10.954;2024-01-10T00:59:31;22.88;;;12.18;;
63693;SDS011;49839;51.798;10.954;2024-01-10T01:02:00;26.50;;;12.30;;
63693;SDS011;49839;51.798;10.954;2024-01-10T01:04:27;28.58;;;12.05;;
63693;SDS011;49839;51.798;10.954;2024-01-10T01:06:55;29.35;;;12.45;;
63693;SDS011;49839;51.798;10.954;2024-01-10T01:09:23;23.80;;;10.95;;
63693;SDS011;49839;51.798;10.954;2024-01-10T01:11:51;30.73;;;12.32;;
63693;SDS011;49839;51.798;10.954;2024-01-10T01:14:18;25.60;;;11.68;;
63693;SDS011;49839;51.798;10.954;2024-01-10T01:16:46;25.77;;;12.20;;
63693;SDS011;49839;51.798;10.954;2024-01-10T01:19:15;29.48;;;11.98;;
63693;SDS011;49839;51.798;10.954;2024-01-10T01:21:42;23.95;;;11.27;;
63693;SDS011;49839;51.798;10.954;2024-01-10T01:24:10;28.73;;;12.27;;
63693;SDS011;49839;51.798;10.954;2024-01-10T01:26:38;25.13;;;11.20;;
63693;SDS011;49839;51.798;10.954;2024-01-10T01:29:05;32.88;;;13.65;;
63693;SDS011;49839;51.798;10.954;2024-01-10T01:31:34;27.27;;;12.23;;
63693;SDS011;49839;51.798;10.954;2024-01-10T01:34:03;40.80;;;13.43;;
63693;SDS011;49839;51.798;10.954;2024-01-10T01:36:32;25.02;;;11.40;;
63693;SDS011;49839;51.798;10.954;2024-01-10T01:39:00;36.25;;;13.88;;
63693;SDS011;49839;51.798;10.954;2024-01-10T01:41:28;24.55;;;11.27;;
63693;SDS011;49839;51.798;10.954;2024-01-10T01:43:55;31.25;;;11.55;;
63693;SDS011;49839;51.798;10.954;2024-01-10T01:46:22;28.60;;;13.32;;
63693;SDS011;49839;51.798;10.954;2024-01-10T01:48:50;33.08;;;12.80;;
63693;SDS011;49839;51.798;10.954;2024-01-10T01:51:19;26.10;;;12.20;;
63693;SDS011;49839;51.798;10.954;2024-01-10T01:53:49;29.60;;;12.43;;
63693;SDS011;49839;51.798;10.954;2024-01-10T01:58:44;26.27;;;11.27;;
63693;SDS011;49839;51.798;10.954;2024-01-10T02:01:12;25.30;;;12.18;;
63693;SDS011;49839;51.798;10.954;2024-01-10T02:03:40;32.65;;;12.40;;
63693;SDS011;49839;51.798;10.954;2024-01-10T02:06:09;32.85;;;14.27;;
63693;SDS011;49839;51.798;10.954;2024-01-10T02:08:37;30.88;;;13.25;;
63693;SDS011;49839;51.798;10.954;2024-01-10T02:11:06;28.52;;;13.10;;
63693;SDS011;49839;51.798;10.954;2024-01-10T02:13:33;32.38;;;13.68;;
63693;SDS011;49839;51.798;10.954;2024-01-10T02:16:01;36.13;;;14.35;;
63693;SDS011;49839;51.798;10.954;2024-01-10T02:18:29;33.45;;;13.45;;
63693;SDS011;49839;51.798;10.954;2024-01-10T02:20:57;29.20;;;13.38;;
63693;SDS011;49839;51.798;10.954;2024-01-10T02:23:25;29.77;;;12.60;;
63693;SDS011;49839;51.798;10.954;2024-01-10T02:25:53;27.40;;;13.25;;
63693;SDS011;49839;51.798;10.954;2024-01-10T02:28:21;29.08;;;13.38;;
63693;SDS011;49839;51.798;10.954;2024-01-10T02:30:49;29.58;;;12.70;;
63693;SDS011;49839;51.798;10.954;2024-01-10T02:33:17;28.70;;;13.30;;
63693;SDS011;49839;51.798;10.954;2024-01-10T02:35:44;31.98;;;12.63;;
63693;SDS011;49839;51.798;10.954;2024-01-10T02:38:12;32.28;;;14.02;;
63693;SDS011;49839;51.798;10.954;2024-01-10T02:40:39;31.58;;;13.30;;
63693;SDS011;49839;51.798;10.954;2024-01-10T02:43:08;29.23;;;13.30;;
63693;SDS011;49839;51.798;10.954;2024-01-10T02:45:36;31.63;;;13.70;;
63693;SDS011;49839;51.798;10.954;2024-01-10T02:48:03;31.08;;;12.90;;
63693;SDS011;49839;51.798;10.954;2024-01-10T02:50:31;36.78;;;13.93;;
63693;SDS011;49839;51.798;10.954;2024-01-10T02:52:58;34.15;;;14.80;;
63693;SDS011;49839;51.798;10.954;2024-01-10T02:55:26;34.33;;;13.45;;
63693;SDS011;49839;51.798;10.954;2024-01-10T02:57:53;29.58;;;13.85;;
63693;SDS011;49839;51.798;10.954;2024-01-10T03:00:22;42.55;;;14.15;;
63693;SDS011;49839;51.798;10.954;2024-01-10T03:02:50;36.80;;;13.60;;
63693;SDS011;49839;51.798;10.954;2024-01-10T03:05:17;32.85;;;13.48;;
63693;SDS011;49839;51.798;10.954;2024-01-10T03:07:45;31.35;;;12.63;;
63693;SDS011;49839;51.798;10.954;2024-01-10T03:10:12;31.33;;;13.55;;
63693;SDS011;49839;51.798;10.954;2024-01-10T03:12:40;37.58;;;15.80;;
63693;SDS011;49839;51.798;10.954;2024-01-10T03:15:07;36.15;;;15.00;;
63693;SDS011;49839;51.798;10.954;2024-01-10T03:17:36;36.22;;;13.40;;
63693;SDS011;49839;51.798;10.954;2024-01-10T03:20:04;33.75;;;13.80;;
63693;SDS011;49839;51.798;10.954;2024-01-10T03:22:32;29.50;;;13.38;;
63693;SDS011;49839;51.798;10.954;2024-01-10T03:25:00;34.88;;;13.93;;
63693;SDS011;49839;51.798;10.954;2024-01-10T03:27:27;30.05;;;12.82;;
63693;SDS011;49839;51.798;10.954;2024-01-10T03:29:54;36.65;;;15.05;;
63693;SDS011;49839;51.798;10.954;2024-01-10T03:32:22;31.15;;;15.18;;
63693;SDS011;49839;51.798;10.954;2024-01-10T03:34:51;35.60;;;14.32;;
63693;SDS011;49839;51.798;10.954;2024-01-10T03:37:18;32.47;;;14.82;;
63693;SDS011;49839;51.798;10.954;2024-01-10T03:39:46;42.88;;;16.73;;
63693;SDS011;49839;51.798;10.954;2024-01-10T03:42:13;34.75;;;14.15;;
63693;SDS011;49839;51.798;10.954;2024-01-10T03:44:42;33.67;;;15.07;;
63693;SDS011;49839;51.798;10.954;2024-01-10T03:47:09;34.58;;;14.13;;
63693;SDS011;49839;51.798;10.954;2024-01-10T03:49:37;30.33;;;14.10;;
63693;SDS011;49839;51.798;10.954;2024-01-10T03:52:06;35.63;;;15.15;;
63693;SDS011;49839;51.798;10.954;2024-01-10T03:54:33;35.88;;;14.10;;
63693;SDS011;49839;51.798;10.954;2024-01-10T03:57:01;29.98;;;13.63;;
63693;SDS011;49839;51.798;10.954;2024-01-10T03:59:28;37.05;;;13.50;;
63693;SDS011;49839;51.798;10.954;2024-01-10T04:01:56;40.80;;;14.63;;
63693;SDS011;49839;51.798;10.954;2024-01-10T04:04:23;28.75;;;14.48;;
63693;SDS011;49839;51.798;10.954;2024-01-10T04:06:51;37.75;;;15.32;;
63693;SDS011;49839;51.798;10.954;2024-01-10T04:09:20;32.63;;;12.93;;
63693;SDS011;49839;51.798;10.954;2024-01-10T04:11:47;35.80;;;14.87;;
63693;SDS011;49839;51.798;10.954;2024-01-10T04:14:15;36.15;;;14.82;;
63693;SDS011;49839;51.798;10.954;2024-01-10T04:16:42;35.70;;;14.70;;
63693;SDS011;49839;51.798;10.954;2024-01-10T04:19:10;36.95;;;14.63;;
63693;SDS011;49839;51.798;10.954;2024-01-10T04:21:38;36.42;;;17.08;;
63693;SDS011;49839;51.798;10.954;2024-01-10T04:24:05;40.95;;;15.38;;
63693;SDS011;49839;51.798;10.954;2024-01-10T04:26:34;36.92;;;15.15;;
63693;SDS011;49839;51.798;10.954;2024-01-10T04:29:01;31.25;;;14.70;;
63693;SDS011;49839;51.798;10.954;2024-01-10T04:31:29;34.33;;;14.85;;
63693;SDS011;49839;51.798;10.954;2024-01-10T04:33:56;39.65;;;15.73;;
63693;SDS011;49839;51.798;10.954;2024-01-10T04:36:24;39.75;;;15.95;;
63693;SDS011;49839;51.798;10.954;2024-01-10T04:38:51;33.22;;;13.23;;
63693;SDS011;49839;51.798;10.954;2024-01-10T04:41:19;37.92;;;15.27;;
63693;SDS011;49839;51.798;10.954;2024-01-10T04:43:48;41.33;;;16.90;;
63693;SDS011;49839;51.798;10.954;2024-01-10T04:46:15;34.72;;;14.77;;
63693;SDS011;49839;51.798;10.954;2024-01-10T04:48:43;34.65;;;15.35;;
63693;SDS011;49839;51.798;10.954;2024-01-10T04:51:10;37.72;;;16.35;;
63693;SDS011;49839;51.798;10.954;2024-01-10T04:53:38;40.85;;;17.95;;
63693;SDS011;49839;51.798;10.954;2024-01-10T04:56:06;76.35;;;29.85;;
63693;SDS011;49839;51.798;10.954;2024-01-10T04:58:33;63.78;;;24.73;;
63693;SDS011;49839;51.798;10.954;2024-01-10T05:03:31;43.53;;;17.60;;
63693;SDS011;49839;51.798;10.954;2024-01-10T05:05:59;42.97;;;16.70;;
63693;SDS011;49839;51.798;10.954;2024-01-10T05:08:27;38.22;;;16.33;;
63693;SDS011;49839;51.798;10.954;2024-01-10T05:10:54;40.03;;;16.23;;
63693;SDS011;49839;51.798;10.954;2024-01-10T05:13:22;34.75;;;15.57;;
63693;SDS011;49839;51.798;10.954;2024-01-10T05:15:49;35.75;;;14.82;;
63693;SDS011;49839;51.798;10.954;2024-01-10T05:18:17;37.05;;;15.63;;
63693;SDS011;49839;51.798;10.954;2024-01-10T05:20:46;48.47;;;18.67;;
63693;SDS011;49839;51.798;10.954;2024-01-10T05:23:14;45.08;;;17.58;;
63693;SDS011;49839;51.798;10.954;2024-01-10T05:25:41;46.45;;;17.33;;
63693;SDS011;49839;51.798;10.954;2024-01-10T05:28:09;43.38;;;17.67;;
63693;SDS011;49839;51.798;10.954;2024-01-10T05:30:36;42.20;;;18.58;;
63693;SDS011;49839;51.798;10.954;2024-01-10T05:33:04;51.42;;;19.75;;
63693;SDS011;49839;51.798;10.954;2024-01-10T05:35:32;39.22;;;17.95;;
63693;SDS011;49839;51.798;10.954;2024-01-10T05:38:01;41.20;;;17.60;;
63693;SDS011;49839;51.798;10.954;2024-01-10T05:42:57;33.10;;;15.63;;
63693;SDS011;49839;51.798;10.954;2024-01-10T05:45:25;37.75;;;14.80;;
63693;SDS011;49839;51.798;10.954;2024-01-10T05:47:53;38.70;;;17.15;;
63693;SDS011;49839;51.798;10.954;2024-01-10T05:50:20;32.85;;;15.27;;
63693;SDS011;49839;51.798;10.954;2024-01-10T05:52:48;39.28;;;14.88;;
63693;SDS011;49839;51.798;10.954;2024-01-10T05:55:17;36.55;;;16.17;;
63693;SDS011;49839;51.798;10.954;2024-01-10T05:57:45;39.20;;;15.55;;
63693;SDS011;49839;51.798;10.954;2024-01-10T06:00:13;40.50;;;17.88;;
63693;SDS011;49839;51.798;10.954;2024-01-10T06:02:42;39.03;;;16.63;;
63693;SDS011;49839;51.798;10.954;2024-01-10T06:05:10;47.97;;;18.58;;
63693;SDS011;49839;51.798;10.954;2024-01-10T06:07:38;34.58;;;15.82;;
63693;SDS011;49839;51.798;10.954;2024-01-10T06:10:07;43.60;;;16.33;;
63693;SDS011;49839;51.798;10.954;2024-01-10T06:12:36;43.20;;;17.00;;
63693;SDS011;49839;51.798;10.954;2024-01-10T06:15:04;37.67;;;18.15;;
63693;SDS011;49839;51.798;10.954;2024-01-10T06:17:32;41.63;;;19.73;;
63693;SDS011;49839;51.798;10.954;2024-01-10T06:20:00;43.63;;;18.13;;
63693;SDS011;49839;51.798;10.954;2024-01-10T06:24:57;34.25;;;13.88;;
63693;SDS011;49839;51.798;10.954;2024-01-10T06:27:24;38.58;;;16.83;;
63693;SDS011;49839;51.798;10.954;2024-01-10T06:29:53;40.13;;;17.52;;
63693;SDS011;49839;51.798;10.954;2024-01-10T06:32:21;39.58;;;16.98;;
63693;SDS011;49839;51.798;10.954;2024-01-10T06:34:48;40.42;;;19.23;;
63693;SDS011;49839;51.798;10.954;2024-01-10T06:37:16;41.33;;;17.75;;
63693;SDS011;49839;51.798;10.954;2024-01-10T06:39:43;40.70;;;18.85;;
63693;SDS011;49839;51.798;10.954;2024-01-10T06:42:11;46.60;;;18.30;;
63693;SDS011;49839;51.798;10.954;2024-01-10T06:44:39;39.25;;;16.58;;
63693;SDS011;49839;51.798;10.954;2024-01-10T06:47:08;45.20;;;20.00;;
63693;SDS011;49839;51.798;10.954;2024-01-10T06:52:04;59.00;;;17.30;;
63693;SDS011;49839;51.798;10.954;2024-01-10T06:54:33;41.63;;;17.70;;
63693;SDS011;49839;51.798;10.954;2024-01-10T06:57:01;40.42;;;17.75;;
63693;SDS011;49839;51.798;10.954;2024-01-10T06:59:28;40.83;;;16.10;;
63693;SDS011;49839;51.798;10.954;2024-01-10T07:01:56;43.20;;;18.73;;
63693;SDS011;49839;51.798;10.954;2024-01-10T07:04:25;36.35;;;17.05;;
63693;SDS011;49839;51.798;10.954;2024-01-10T07:06:54;41.25;;;18.25;;
63693;SDS011;49839;51.798;10.954;2024-01-10T07:09:21;41.15;;;16.83;;
63693;SDS011;49839;51.798;10.954;2024-01-10T07:11:49;40.38;;;17.80;;
63693;SDS011;49839;51.798;10.954;2024-01-10T07:14:16;39.92;;;17.35;;
63693;SDS011;49839;51.798;10.954;2024-01-10T07:16:44;47.35;;;18.23;;
63693;SDS011;49839;51.798;10.954;2024-01-10T07:19:13;42.20;;;20.33;;
63693;SDS011;49839;51.798;10.954;2024-01-10T07:21:42;39.33;;;16.40;;
63693;SDS011;49839;51.798;10.954;2024-01-10T07:24:10;46.83;;;19.02;;
63693;SDS011;49839;51.798;10.954;2024-01-10T07:26:38;54.28;;;22.48;;
63693;SDS011;49839;51.798;10.954;2024-01-10T07:29:05;52.70;;;21.50;;
63693;SDS011;49839;51.798;10.954;2024-01-10T07:31:35;27.83;;;15.65;;
63693;SDS011;49839;51.798;10.954;2024-01-10T07:34:03;48.78;;;23.30;;
63693;SDS011;49839;51.798;10.954;2024-01-10T07:36:32;46.17;;;21.27;;
63693;SDS011;49839;51.798;10.954;2024-01-10T07:39:01;43.70;;;19.30;;
63693;SDS011;49839;51.798;10.954;2024-01-10T07:41:30;46.17;;;21.65;;
63693;SDS011;49839;51.798;10.954;2024-01-10T07:43:57;47.60;;;20.13;;
63693;SDS011;49839;51.798;10.954;2024-01-10T07:46:24;47.20;;;22.17;;
63693;SDS011;49839;51.798;10.954;2024-01-10T07:48:53;43.00;;;19.38;;
63693;SDS011;49839;51.798;10.954;2024-01-10T07:51:21;46.53;;;20.83;;
63693;SDS011;49839;51.798;10.954;2024-01-10T07:53:48;44.30;;;19.67;;
63693;SDS011;49839;51.798;10.954;2024-01-10T07:56:17;68.55;;;32.40;;
63693;SDS011;49839;51.798;10.954;2024-01-10T07:58:46;64.28;;;26.45;;
63693;SDS011;49839;51.798;10.954;2024-01-10T08:01:15;74.82;;;28.15;;
63693;SDS011;49839;51.798;10.954;2024-01-10T08:03:42;56.20;;;24.05;;
63693;SDS011;49839;51.798;10.954;2024-01-10T08:06:10;44.08;;;22.83;;
63693;SDS011;49839;51.798;10.954;2024-01-10T08:08:52;60.42;;;25.02;;
63693;SDS011;49839;51.798;10.954;2024-01-10T08:11:21;59.05;;;22.92;;
63693;SDS011;49839;51.798;10.954;2024-01-10T08:13:48;53.78;;;24.45;;
63693;SDS011;49839;51.798;10.954;2024-01-10T08:16:17;52.22;;;23.25;;
63693;SDS011;49839;51.798;10.954;2024-01-10T08:18:45;48.97;;;22.05;;
63693;SDS011;49839;51.798;10.954;2024-01-10T08:21:13;47.75;;;20.95;;
63693;SDS011;49839;51.798;10.954;2024-01-10T08:23:40;56.58;;;25.00;;
63693;SDS011;49839;51.798;10.954;2024-01-10T08:26:08;58.03;;;21.17;;
63693;SDS011;49839;51.798;10.954;2024-01-10T08:28:37;47.97;;;22.30;;
63693;SDS011;49839;51.798;10.954;2024-01-10T08:31:04;50.95;;;21.00;;
63693;SDS011;49839;51.798;10.954;2024-01-10T08:33:32;44.05;;;20.05;;
63693;SDS011;49839;51.798;10.954;2024-01-10T08:36:00;41.63;;;17.45;;
63693;SDS011;49839;51.798;10.954;2024-01-10T08:38:27;50.38;;;21.23;;
63693;SDS011;49839;51.798;10.954;2024-01-10T08:40:55;45.70;;;20.55;;
63693;SDS011;49839;51.798;10.954;2024-01-10T08:43:22;51.00;;;20.88;;
63693;SDS011;49839;51.798;10.954;2024-01-10T08:45:51;44.70;;;20.27;;
63693;SDS011;49839;51.798;10.954;2024-01-10T08:48:19;44.58;;;19.92;;
63693;SDS011;49839;51.798;10.954;2024-01-10T08:50:46;43.65;;;19.60;;
63693;SDS011;49839;51.798;10.954;2024-01-10T08:53:14;44.92;;;19.23;;
63693;SDS011;49839;51.798;10.954;2024-01-10T08:55:42;46.03;;;19.40;;
63693;SDS011;49839;51.798;10.954;2024-01-10T08:58:10;36.35;;;17.40;;
63693;SDS011;49839;51.798;10.954;2024-01-10T09:00:37;32.60;;;12.80;;
63693;SDS011;49839;51.798;10.954;2024-01-10T09:03:06;40.20;;;16.98;;
63693;SDS011;49839;51.798;10.954;2024-01-10T09:05:35;41.25;;;17.67;;
63693;SDS011;49839;51.798;10.954;2024-01-10T09:08:03;53.22;;;19.58;;
63693;SDS011;49839;51.798;10.954;2024-01-10T09:10:31;43.90;;;18.63;;
63693;SDS011;49839;51.798;10.954;2024-01-10T09:12:58;44.58;;;19.67;;
63693;SDS011;49839;51.798;10.954;2024-01-10T09:15:26;45.83;;;21.10;;
63693;SDS011;49839;51.798;10.954;2024-01-10T09:17:53;45.58;;;21.98;;
63693;SDS011;49839;51.798;10.954;2024-01-10T09:20:23;38.65;;;19.30;;
63693;SDS011;49839;51.798;10.954;2024-01-10T09:22:50;48.00;;;21.40;;
63693;SDS011;49839;51.798;10.954;2024-01-10T09:25:18;38.63;;;17.80;;
63693;SDS011;49839;51.798;10.954;2024-01-10T09:27:45;47.58;;;19.58;;
63693;SDS011;49839;51.798;10.954;2024-01-10T09:30:13;42.75;;;19.95;;
63693;SDS011;49839;51.798;10.954;2024-01-10T09:32:43;47.35;;;23.48;;
63693;SDS011;49839;51.798;10.954;2024-01-10T09:35:11;42.28;;;19.15;;
63693;SDS011;49839;51.798;10.954;2024-01-10T09:37:40;42.08;;;20.10;;
63693;SDS011;49839;51.798;10.954;2024-01-10T09:40:08;55.93;;;23.40;;
63693;SDS011;49839;51.798;10.954;2024-01-10T09:42:36;47.65;;;22.35;;
63693;SDS011;49839;51.798;10.954;2024-01-10T09:45:04;42.58;;;20.67;;
63693;SDS011;49839;51.798;10.954;2024-01-10T09:47:32;43.35;;;20.48;;
63693;SDS011;49839;51.798;10.954;2024-01-10T09:50:00;49.03;;;22.75;;
63693;SDS011;49839;51.798;10.954;2024-01-10T09:54:58;42.33;;;20.52;;
63693;SDS011;49839;51.798;10.954;2024-01-10T09:57:27;40.53;;;20.08;;
63693;SDS011;49839;51.798;10.954;2024-01-10T09:59:55;45.17;;;22.00;;
63693;SDS011;49839;51.798;10.954;2024-01-10T10:02:23;46.40;;;23.33;;
63693;SDS011;49839;51.798;10.954;2024-01-10T10:04:53;43.78;;;23.77;;
63693;SDS011;49839;51.798;10.954;2024-01-10T10:07:23;41.75;;;21.25;;
63693;SDS011;49839;51.798;10.954;2024-01-10T10:09:51;41.60;;;22.23;;
63693;SDS011;49839;51.798;10.954;2024-01-10T10:12:20;41.83;;;22.13;;
63693;SDS011;49839;51.798;10.954;2024-01-10T10:14:48;39.70;;;22.73;;
63693;SDS011;49839;51.798;10.954;2024-01-10T10:17:16;39.08;;;23.08;;
63693;SDS011;49839;51.798;10.954;2024-01-10T10:19:43;43.53;;;23.48;;
63693;SDS011;49839;51.798;10.954;2024-01-10T10:22:11;40.25;;;22.30;;
63693;SDS011;49839;51.798;10.954;2024-01-10T10:24:39;38.47;;;23.15;;
63693;SDS011;49839;51.798;10.954;2024-01-10T10:27:07;42.95;;;23.58;;
63693;SDS011;49839;51.798;10.954;2024-01-10T10:29:37;40.78;;;23.02;;
63693;SDS011;49839;51.798;10.954;2024-01-10T10:32:06;42.60;;;23.33;;
63693;SDS011;49839;51.798;10.954;2024-01-10T10:34:35;42.55;;;24.42;;
63693;SDS011;49839;51.798;10.954;2024-01-10T10:37:02;43.53;;;25.40;;
63693;SDS011;49839;51.798;10.954;2024-01-10T10:39:30;41.58;;;24.08;;
63693;SDS011;49839;51.798;10.954;2024-01-10T10:41:57;38.67;;;23.45;;
63693;SDS011;49839;51.798;10.954;2024-01-10T10:44:25;43.25;;;24.80;;
63693;SDS011;49839;51.798;10.954;2024-01-10T10:46:58;39.70;;;24.10;;
63693;SDS011;49839;51.798;10.954;2024-01-10T10:49:39;44.00;;;25.13;;
63693;SDS011;49839;51.798;10.954;2024-01-10T10:52:08;40.45;;;24.42;;
63693;SDS011;49839;51.798;10.954;2024-01-10T10:54:35;39.90;;;24.67;;
63693;SDS011;49839;51.798;10.954;2024-01-10T10:57:04;41.53;;;24.60;;
63693;SDS011;49839;51.798;10.954;2024-01-10T10:59:32;47.13;;;25.15;;
63693;SDS011;49839;51.798;10.954;2024-01-10T11:02:02;43.83;;;25.70;;
63693;SDS011;49839;51.798;10.954;2024-01-10T11:04:30;48.55;;;28.33;;
63693;SDS011;49839;51.798;10.954;2024-01-10T11:06:58;47.78;;;28.27;;
63693;SDS011;49839;51.798;10.954;2024-01-10T11:09:26;43.53;;;25.52;;
63693;SDS011;49839;51.798;10.954;2024-01-10T11:11:59;42.10;;;25.90;;
63693;SDS011;49839;51.798;10.954;2024-01-10T11:14:33;44.88;;;26.33;;
63693;SDS011;49839;51.798;10.954;2024-01-10T11:22:40;46.22;;;25.13;;
63693;SDS011;49839;51.798;10.954;2024-01-10T11:25:10;42.85;;;25.20;;
63693;SDS011;49839;51.798;10.954;2024-01-10T11:27:38;45.05;;;26.48;;
63693;SDS011;49839;51.798;10.954;2024-01-10T11:30:09;45.45;;;26.45;;
63693;SDS011;49839;51.798;10.954;2024-01-10T11:32:37;45.13;;;27.80;;
63693;SDS011;49839;51.798;10.954;2024-01-10T11:35:05;47.33;;;26.00;;
63693;SDS011;49839;51.798;10.954;2024-01-10T11:37:39;46.05;;;25.83;;
63693;SDS011;49839;51.798;10.954;2024-01-10T11:40:09;48.10;;;25.75;;
63693;SDS011;49839;51.798;10.954;2024-01-10T11:42:43;48.97;;;26.83;;
63693;SDS011;49839;51.798;10.954;2024-01-10T11:45:15;41.97;;;23.98;;
63693;SDS011;49839;51.798;10.954;2024-01-10T11:48:03;43.45;;;24.83;;
63693;SDS011;49839;51.798;10.954;2024-01-10T11:50:30;48.55;;;24.85;;
63693;SDS011;49839;51.798;10.954;2024-01-10T11:52:59;47.15;;;24.95;;
63693;SDS011;49839;51.798;10.954;2024-01-10T11:58:16;41.53;;;21.20;;
63693;SDS011;49839;51.798;10.954;2024-01-10T12:00:43;60.00;;;30.05;;
63693;SDS011;49839;51.798;10.954;2024-01-10T12:03:11;54.60;;;28.33;;
63693;SDS011;49839;51.798;10.954;2024-01-10T12:05:39;47.92;;;25.10;;
63693;SDS011;49839;51.798;10.954;2024-01-10T12:08:08;48.83;;;24.92;;
63693;SDS011;49839;51.798;10.954;2024-01-10T12:10:36;50.00;;;24.20;;
63693;SDS011;49839;51.798;10.954;2024-01-10T12:13:04;44.47;;;24.17;;
63693;SDS011;49839;51.798;10.954;2024-01-10T12:15:32;45.03;;;23.35;;
63693;SDS011;49839;51.798;10.954;2024-01-10T12:18:00;51.20;;;24.10;;
63693;SDS011;49839;51.798;10.954;2024-01-10T12:20:27;47.35;;;23.85;;
63693;SDS011;49839;51.798;10.954;2024-01-10T12:22:55;50.45;;;23.10;;
63693;SDS011;49839;51.798;10.954;2024-01-10T12:25:24;40.28;;;19.60;;
63693;SDS011;49839;51.798;10.954;2024-01-10T12:30:20;29.50;;;13.98;;
63693;SDS011;49839;51.798;10.954;2024-01-10T12:32:50;50.75;;;23.45;;
63693;SDS011;49839;51.798;10.954;2024-01-10T12:37:53;38.42;;;15.60;;
63693;SDS011;49839;51.798;10.954;2024-01-10T12:40:20;43.17;;;20.95;;
63693;SDS011;49839;51.798;10.954;2024-01-10T12:42:49;47.55;;;21.98;;
63693;SDS011;49839;51.798;10.954;2024-01-10T12:45:28;45.55;;;21.27;;
63693;SDS011;49839;51.798;10.954;2024-01-10T12:47:56;45.00;;;18.95;;
63693;SDS011;49839;51.798;10.954;2024-01-10T12:50:24;46.72;;;20.27;;
63693;SDS011;49839;51.798;10.954;2024-01-10T12:52:52;52.38;;;24.25;;
63693;SDS011;49839;51.798;10.954;2024-01-10T12:55:20;46.30;;;22.73;;
63693;SDS011;49839;51.798;10.954;2024-01-10T12:57:49;51.05;;;24.17;;
63693;SDS011;49839;51.798;10.954;2024-01-10T13:00:17;56.90;;;23.40;;
63693;SDS011;49839;51.798;10.954;2024-01-10T13:02:44;54.20;;;22.80;;
63693;SDS011;49839;51.798;10.954;2024-01-10T13:05:13;48.88;;;22.80;;
63693;SDS011;49839;51.798;10.954;2024-01-10T13:07:41;47.70;;;20.70;;
63693;SDS011;49839;51.798;10.954;2024-01-10T13:10:09;52.45;;;22.88;;
63693;SDS011;49839;51.798;10.954;2024-01-10T13:12:38;39.30;;;18.30;;
63693;SDS011;49839;51.798;10.954;2024-01-10T13:15:08;50.55;;;24.10;;
63693;SDS011;49839;51.798;10.954;2024-01-10T13:17:36;56.25;;;23.40;;
63693;SDS011;49839;51.798;10.954;2024-01-10T13:20:04;58.42;;;25.85;;
63693;SDS011;49839;51.798;10.954;2024-01-10T13:22:32;46.97;;;23.83;;
63693;SDS011;49839;51.798;10.954;2024-01-10T13:25:00;62.28;;;28.42;;
63693;SDS011;49839;51.798;10.954;2024-01-10T13:27:28;65.90;;;28.52;;
63693;SDS011;49839;51.798;10.954;2024-01-10T13:29:55;58.22;;;26.40;;
63693;SDS011;49839;51.798;10.954;2024-01-10T13:32:24;56.63;;;25.02;;
63693;SDS011;49839;51.798;10.954;2024-01-10T13:34:52;59.27;;;25.90;;
63693;SDS011;49839;51.798;10.954;2024-01-10T13:37:19;50.83;;;24.00;;
63693;SDS011;49839;51.798;10.954;2024-01-10T13:39:47;52.95;;;24.52;;
63693;SDS011;49839;51.798;10.954;2024-01-10T13:42:15;58.15;;;26.25;;
63693;SDS011;49839;51.798;10.954;2024-01-10T13:44:42;49.85;;;22.88;;
63693;SDS011;49839;51.798;10.954;2024-01-10T13:47:10;59.65;;;25.60;;
63693;SDS011;49839;51.798;10.954;2024-01-10T13:49:38;54.92;;;26.00;;
63693;SDS011;49839;51.798;10.954;2024-01-10T13:54:34;48.67;;;22.00;;
63693;SDS011;49839;51.798;10.954;2024-01-10T13:57:03;46.88;;;21.95;;
63693;SDS011;49839;51.798;10.954;2024-01-10T13:59:30;55.10;;;23.63;;
63693;SDS011;49839;51.798;10.954;2024-01-10T14:01:58;58.53;;;25.23;;
63693;SDS011;49839;51.798;10.954;2024-01-10T14:04:26;61.50;;;27.85;;
63693;SDS011;49839;51.798;10.954;2024-01-10T14:06:55;57.88;;;25.25;;
63693;SDS011;49839;51.798;10.954;2024-01-10T14:09:22;53.30;;;23.77;;
63693;SDS011;49839;51.798;10.954;2024-01-10T14:11:50;54.50;;;25.40;;
63693;SDS011;49839;51.798;10.954;2024-01-10T14:14:18;46.25;;;22.65;;
63693;SDS011;49839;51.798;10.954;2024-01-10T14:16:51;50.80;;;23.40;;
63693;SDS011;49839;51.798;10.954;2024-01-10T14:19:18;52.00;;;25.05;;
63693;SDS011;49839;51.798;10.954;2024-01-10T14:21:46;51.92;;;23.20;;
63693;SDS011;49839;51.798;10.954;2024-01-10T14:24:15;55.45;;;25.40;;
63693;SDS011;49839;51.798;10.954;2024-01-10T14:26:43;53.78;;;23.65;;
63693;SDS011;49839;51.798;10.954;2024-01-10T14:29:10;58.00;;;25.17;;
63693;SDS011;49839;51.798;10.954;2024-01-10T14:31:37;54.63;;;24.45;;
63693;SDS011;49839;51.798;10.954;2024-01-10T14:34:08;55.88;;;24.95;;
63693;SDS011;49839;51.798;10.954;2024-01-10T14:36:36;54.90;;;25.10;;
63693;SDS011;49839;51.798;10.954;2024-01-10T14:39:04;57.28;;;26.67;;
63693;SDS011;49839;51.798;10.954;2024-01-10T14:41:34;61.90;;;27.13;;
63693;SDS011;49839;51.798;10.954;2024-01-10T14:44:02;53.00;;;25.25;;